sensor_id;sensor_type;location;lat;lon;timestamp;temperature;humidity
16301;DHT22;8258;51.020;4.248;2022-07-23T00:00:14;15.50;99.90
16301;DHT22;8258;51.020;4.248;2022-07-23T00:02:41;15.40;99.90
16301;DHT22;8258;51.020;4.248;2022-07-23T00:05:09;15.30;99.90
16301;DHT22;8258;51.020;4.248;2022-07-23T00:07:36;15.10;99.90
16301;DHT22;8258;51.020;4.248;2022-07-23T00:10:03;15.00;99.90
16301;DHT22;8258;51.020;4.248;2022-07-23T00:12:30;15.00;99.90
16301;DHT22;8258;51.020;4.248;2022-07-23T00:14:59;15.10;99.90
16301;DHT22;8258;51.020;4.248;2022-07-23T00:17:26;15.10;99.90
16301;DHT22;8258;51.020;4.248;2022-07-23T00:19:53;15.00;99.90
16301;DHT22;8258;51.020;4.248;2022-07-23T00:22:20;15.00;99.90
16301;DHT22;8258;51.020;4.248;2022-07-23T00:24:47;15.00;99.90
16301;DHT22;8258;51.020;4.248;2022-07-23T00:27:14;15.10;99.90
16301;DHT22;8258;51.020;4.248;2022-07-23T00:29:40;15.10;99.90
16301;DHT22;8258;51.020;4.248;2022-07-23T00:32:09;14.90;99.90
16301;DHT22;8258;51.020;4.248;2022-07-23T00:34:36;14.80;99.90
16301;DHT22;8258;51.020;4.248;2022-07-23T00:37:03;14.70;99.90
16301;DHT22;8258;51.020;4.248;2022-07-23T00:39:29;14.70;99.90
16301;DHT22;8258;51.020;4.248;2022-07-23T00:41:56;14.70;99.90
16301;DHT22;8258;51.020;4.248;2022-07-23T00:44:25;14.70;99.90
16301;DHT22;8258;51.020;4.248;2022-07-23T00:46:53;14.70;99.90
16301;DHT22;8258;51.020;4.248;2022-07-23T00:49:23;14.70;99.90
16301;DHT22;8258;51.020;4.248;2022-07-23T00:51:51;14.70;99.90
16301;DHT22;8258;51.020;4.248;2022-07-23T00:54:19;14.60;99.90
16301;DHT22;8258;51.020;4.248;2022-07-23T00:56:46;14.60;99.90
16301;DHT22;8258;51.020;4.248;2022-07-23T00:59:14;14.60;99.90
16301;DHT22;8258;51.020;4.248;2022-07-23T01:01:41;14.60;99.90
16301;DHT22;8258;51.020;4.248;2022-07-23T01:04:09;14.60;99.90
16301;DHT22;8258;51.020;4.248;2022-07-23T01:06:38;14.60;99.90
16301;DHT22;8258;51.020;4.248;2022-07-23T01:09:06;14.60;99.90
16301;DHT22;8258;51.020;4.248;2022-07-23T01:11:34;14.50;99.90
16301;DHT22;8258;51.020;4.248;2022-07-23T01:14:11;14.50;99.90
16301;DHT22;8258;51.020;4.248;2022-07-23T01:16:38;14.40;99.90
16301;DHT22;8258;51.020;4.248;2022-07-23T01:19:05;14.20;99.90
16301;DHT22;8258;51.020;4.248;2022-07-23T01:21:36;14.20;99.90
16301;DHT22;8258;51.020;4.248;2022-07-23T01:24:05;14.20;99.90
16301;DHT22;8258;51.020;4.248;2022-07-23T01:26:32;14.20;99.90
16301;DHT22;8258;51.020;4.248;2022-07-23T01:28:59;14.10;99.90
16301;DHT22;8258;51.020;4.248;2022-07-23T01:31:26;14.10;99.90
16301;DHT22;8258;51.020;4.248;2022-07-23T01:33:54;14.10;99.90
16301;DHT22;8258;51.020;4.248;2022-07-23T01:36:21;14.10;99.90
16301;DHT22;8258;51.020;4.248;2022-07-23T01:38:48;14.00;99.90
16301;DHT22;8258;51.020;4.248;2022-07-23T01:41:16;14.10;99.90
16301;DHT22;8258;51.020;4.248;2022-07-23T01:43:44;14.10;99.90
16301;DHT22;8258;51.020;4.248;2022-07-23T01:46:11;14.10;99.90
16301;DHT22;8258;51.020;4.248;2022-07-23T01:48:38;14.10;99.90
16301;DHT22;8258;51.020;4.248;2022-07-23T01:51:05;14.00;99.90
16301;DHT22;8258;51.020;4.248;2022-07-23T01:53:32;13.80;99.90
16301;DHT22;8258;51.020;4.248;2022-07-23T01:55:59;13.80;99.90
16301;DHT22;8258;51.020;4.248;2022-07-23T01:58:28;13.90;99.90
16301;DHT22;8258;51.020;4.248;2022-07-23T02:00:55;13.90;99.90
16301;DHT22;8258;51.020;4.248;2022-07-23T02:03:22;14.00;99.90
16301;DHT22;8258;51.020;4.248;2022-07-23T02:05:49;13.90;99.90
16301;DHT22;8258;51.020;4.248;2022-07-23T02:08:17;13.90;99.90
16301;DHT22;8258;51.020;4.248;2022-07-23T02:10:44;13.90;99.90
16301;DHT22;8258;51.020;4.248;2022-07-23T02:13:11;13.80;99.90
16301;DHT22;8258;51.020;4.248;2022-07-23T02:15:40;13.70;99.90
16301;DHT22;8258;51.020;4.248;2022-07-23T02:18:07;13.70;99.90
16301;DHT22;8258;51.020;4.248;2022-07-23T02:20:34;13.60;99.90
16301;DHT22;8258;51.020;4.248;2022-07-23T02:23:04;13.60;99.90
16301;DHT22;8258;51.020;4.248;2022-07-23T02:25:31;13.60;99.90
16301;DHT22;8258;51.020;4.248;2022-07-23T02:27:58;13.50;99.90
16301;DHT22;8258;51.020;4.248;2022-07-23T02:30:25;13.50;99.90
16301;DHT22;8258;51.020;4.248;2022-07-23T02:32:53;13.50;99.90
16301;DHT22;8258;51.020;4.248;2022-07-23T02:35:20;13.40;99.90
16301;DHT22;8258;51.020;4.248;2022-07-23T02:37:47;13.40;99.90
16301;DHT22;8258;51.020;4.248;2022-07-23T02:40:14;13.50;99.90
16301;DHT22;8258;51.020;4.248;2022-07-23T02:42:40;13.60;99.90
16301;DHT22;8258;51.020;4.248;2022-07-23T02:45:08;13.50;99.90
16301;DHT22;8258;51.020;4.248;2022-07-23T02:47:35;13.50;99.90
16301;DHT22;8258;51.020;4.248;2022-07-23T02:50:05;13.50;99.90
16301;DHT22;8258;51.020;4.248;2022-07-23T02:52:32;13.60;99.90
16301;DHT22;8258;51.020;4.248;2022-07-23T02:54:59;13.60;99.90
16301;DHT22;8258;51.020;4.248;2022-07-23T02:57:26;13.60;99.90
16301;DHT22;8258;51.020;4.248;2022-07-23T02:59:53;13.50;99.90
16301;DHT22;8258;51.020;4.248;2022-07-23T03:02:20;13.60;99.90
16301;DHT22;8258;51.020;4.248;2022-07-23T03:04:47;13.50;99.90
16301;DHT22;8258;51.020;4.248;2022-07-23T03:07:16;13.60;99.90
16301;DHT22;8258;51.020;4.248;2022-07-23T03:09:43;13.50;99.90
16301;DHT22;8258;51.020;4.248;2022-07-23T03:12:10;13.40;99.90
16301;DHT22;8258;51.020;4.248;2022-07-23T03:14:37;13.40;99.90
16301;DHT22;8258;51.020;4.248;2022-07-23T03:17:03;13.40;99.90
16301;DHT22;8258;51.020;4.248;2022-07-23T03:19:30;13.40;99.90
16301;DHT22;8258;51.020;4.248;2022-07-23T03:21:57;13.40;99.90
16301;DHT22;8258;51.020;4.248;2022-07-23T03:24:25;13.30;99.90
16301;DHT22;8258;51.020;4.248;2022-07-23T03:27:14;13.20;99.90
16301;DHT22;8258;51.020;4.248;2022-07-23T03:29:40;13.30;99.90
16301;DHT22;8258;51.020;4.248;2022-07-23T03:32:07;13.30;99.90
16301;DHT22;8258;51.020;4.248;2022-07-23T03:34:35;13.20;99.90
16301;DHT22;8258;51.020;4.248;2022-07-23T03:37:02;13.20;99.90
16301;DHT22;8258;51.020;4.248;2022-07-23T03:39:30;13.20;99.90
16301;DHT22;8258;51.020;4.248;2022-07-23T03:41:57;13.30;99.90
16301;DHT22;8258;51.020;4.248;2022-07-23T03:44:24;13.30;99.90
16301;DHT22;8258;51.020;4.248;2022-07-23T03:46:51;13.20;99.90
16301;DHT22;8258;51.020;4.248;2022-07-23T03:49:18;13.10;99.90
16301;DHT22;8258;51.020;4.248;2022-07-23T03:51:45;13.10;99.90
16301;DHT22;8258;51.020;4.248;2022-07-23T03:54:12;13.20;99.90
16301;DHT22;8258;51.020;4.248;2022-07-23T03:56:40;13.20;99.90
16301;DHT22;8258;51.020;4.248;2022-07-23T03:59:08;13.10;99.90
16301;DHT22;8258;51.020;4.248;2022-07-23T04:01:35;13.10;99.90
16301;DHT22;8258;51.020;4.248;2022-07-23T04:04:02;13.00;99.90
16301;DHT22;8258;51.020;4.248;2022-07-23T04:06:29;13.00;99.90
16301;DHT22;8258;51.020;4.248;2022-07-23T04:08:56;13.20;99.90
16301;DHT22;8258;51.020;4.248;2022-07-23T04:11:23;13.20;99.90
16301;DHT22;8258;51.020;4.248;2022-07-23T04:13:51;13.20;99.90
16301;DHT22;8258;51.020;4.248;2022-07-23T04:16:18;13.20;99.90
16301;DHT22;8258;51.020;4.248;2022-07-23T04:18:45;13.20;99.90
16301;DHT22;8258;51.020;4.248;2022-07-23T04:21:12;13.10;99.90
16301;DHT22;8258;51.020;4.248;2022-07-23T04:23:39;13.20;99.90
16301;DHT22;8258;51.020;4.248;2022-07-23T04:26:06;13.30;99.90
16301;DHT22;8258;51.020;4.248;2022-07-23T04:28:33;13.20;99.90
16301;DHT22;8258;51.020;4.248;2022-07-23T04:31:01;13.20;99.90
16301;DHT22;8258;51.020;4.248;2022-07-23T04:33:28;13.20;99.90
16301;DHT22;8258;51.020;4.248;2022-07-23T04:35:55;13.30;99.90
16301;DHT22;8258;51.020;4.248;2022-07-23T04:38:22;13.40;99.90
16301;DHT22;8258;51.020;4.248;2022-07-23T04:40:49;13.40;99.90
16301;DHT22;8258;51.020;4.248;2022-07-23T04:43:16;13.40;99.90
16301;DHT22;8258;51.020;4.248;2022-07-23T04:45:43;13.50;99.90
16301;DHT22;8258;51.020;4.248;2022-07-23T04:48:11;13.60;99.90
16301;DHT22;8258;51.020;4.248;2022-07-23T04:50:38;13.60;99.90
16301;DHT22;8258;51.020;4.248;2022-07-23T04:53:05;13.60;99.90
16301;DHT22;8258;51.020;4.248;2022-07-23T04:55:32;13.60;99.90
16301;DHT22;8258;51.020;4.248;2022-07-23T04:57:59;13.60;99.90
16301;DHT22;8258;51.020;4.248;2022-07-23T05:00:26;13.80;99.90
16301;DHT22;8258;51.020;4.248;2022-07-23T05:02:52;13.80;99.90
16301;DHT22;8258;51.020;4.248;2022-07-23T05:05:21;13.80;99.90
16301;DHT22;8258;51.020;4.248;2022-07-23T05:07:48;14.00;99.90
16301;DHT22;8258;51.020;4.248;2022-07-23T05:10:15;14.10;99.90
16301;DHT22;8258;51.020;4.248;2022-07-23T05:12:42;14.30;99.90
16301;DHT22;8258;51.020;4.248;2022-07-23T05:15:08;14.50;99.90
16301;DHT22;8258;51.020;4.248;2022-07-23T05:17:36;14.60;99.90
16301;DHT22;8258;51.020;4.248;2022-07-23T05:20:03;14.80;99.90
16301;DHT22;8258;51.020;4.248;2022-07-23T05:22:31;15.00;99.90
16301;DHT22;8258;51.020;4.248;2022-07-23T05:24:58;15.30;99.90
16301;DHT22;8258;51.020;4.248;2022-07-23T05:27:25;15.50;99.90
16301;DHT22;8258;51.020;4.248;2022-07-23T05:29:52;15.80;99.90
16301;DHT22;8258;51.020;4.248;2022-07-23T05:32:19;15.90;99.90
16301;DHT22;8258;51.020;4.248;2022-07-23T05:34:46;16.20;99.90
16301;DHT22;8258;51.020;4.248;2022-07-23T05:37:13;16.40;99.90
16301;DHT22;8258;51.020;4.248;2022-07-23T05:39:41;16.60;99.90
16301;DHT22;8258;51.020;4.248;2022-07-23T05:42:08;16.70;99.90
16301;DHT22;8258;51.020;4.248;2022-07-23T05:44:35;16.70;99.90
16301;DHT22;8258;51.020;4.248;2022-07-23T05:47:02;16.80;99.90
16301;DHT22;8258;51.020;4.248;2022-07-23T05:49:29;16.70;99.90
16301;DHT22;8258;51.020;4.248;2022-07-23T05:51:56;16.70;99.90
16301;DHT22;8258;51.020;4.248;2022-07-23T05:54:23;16.80;99.90
16301;DHT22;8258;51.020;4.248;2022-07-23T05:56:51;16.90;99.90
16301;DHT22;8258;51.020;4.248;2022-07-23T05:59:18;16.90;99.90
16301;DHT22;8258;51.020;4.248;2022-07-23T06:01:45;16.90;99.90
16301;DHT22;8258;51.020;4.248;2022-07-23T06:04:12;16.80;99.90
16301;DHT22;8258;51.020;4.248;2022-07-23T06:06:39;16.90;99.90
16301;DHT22;8258;51.020;4.248;2022-07-23T06:09:09;17.00;99.90
16301;DHT22;8258;51.020;4.248;2022-07-23T06:11:39;17.10;99.90
16301;DHT22;8258;51.020;4.248;2022-07-23T06:14:07;17.20;99.90
16301;DHT22;8258;51.020;4.248;2022-07-23T06:16:34;17.20;99.90
16301;DHT22;8258;51.020;4.248;2022-07-23T06:19:01;17.40;99.90
16301;DHT22;8258;51.020;4.248;2022-07-23T06:21:28;17.40;99.90
16301;DHT22;8258;51.020;4.248;2022-07-23T06:23:55;17.50;99.90
16301;DHT22;8258;51.020;4.248;2022-07-23T06:26:22;17.60;99.90
16301;DHT22;8258;51.020;4.248;2022-07-23T06:28:49;17.70;99.90
16301;DHT22;8258;51.020;4.248;2022-07-23T06:31:17;17.80;99.90
16301;DHT22;8258;51.020;4.248;2022-07-23T06:33:44;18.00;99.90
16301;DHT22;8258;51.020;4.248;2022-07-23T06:36:11;17.90;99.90
16301;DHT22;8258;51.020;4.248;2022-07-23T06:38:38;17.90;99.90
16301;DHT22;8258;51.020;4.248;2022-07-23T06:41:05;17.80;99.90
16301;DHT22;8258;51.020;4.248;2022-07-23T06:43:31;17.80;99.90
16301;DHT22;8258;51.020;4.248;2022-07-23T06:45:58;17.80;99.90
16301;DHT22;8258;51.020;4.248;2022-07-23T06:48:27;17.90;99.90
16301;DHT22;8258;51.020;4.248;2022-07-23T06:50:54;18.10;99.90
16301;DHT22;8258;51.020;4.248;2022-07-23T06:53:21;18.20;99.90
16301;DHT22;8258;51.020;4.248;2022-07-23T06:55:48;18.20;99.90
16301;DHT22;8258;51.020;4.248;2022-07-23T06:58:15;18.30;99.90
16301;DHT22;8258;51.020;4.248;2022-07-23T07:00:42;18.50;99.90
16301;DHT22;8258;51.020;4.248;2022-07-23T07:03:09;18.50;99.90
16301;DHT22;8258;51.020;4.248;2022-07-23T07:05:37;18.70;99.90
16301;DHT22;8258;51.020;4.248;2022-07-23T07:08:05;18.70;99.90
16301;DHT22;8258;51.020;4.248;2022-07-23T07:10:32;18.50;99.90
16301;DHT22;8258;51.020;4.248;2022-07-23T07:12:59;18.60;99.90
16301;DHT22;8258;51.020;4.248;2022-07-23T07:15:26;18.90;99.90
16301;DHT22;8258;51.020;4.248;2022-07-23T07:17:53;19.50;99.90
16301;DHT22;8258;51.020;4.248;2022-07-23T07:20:20;20.30;99.90
16301;DHT22;8258;51.020;4.248;2022-07-23T07:22:48;20.90;99.90
16301;DHT22;8258;51.020;4.248;2022-07-23T07:25:15;22.10;99.90
16301;DHT22;8258;51.020;4.248;2022-07-23T07:27:42;22.90;99.90
16301;DHT22;8258;51.020;4.248;2022-07-23T07:30:11;23.50;99.90
16301;DHT22;8258;51.020;4.248;2022-07-23T07:32:38;24.20;99.90
16301;DHT22;8258;51.020;4.248;2022-07-23T07:35:06;25.10;99.90
16301;DHT22;8258;51.020;4.248;2022-07-23T07:37:33;24.80;99.90
16301;DHT22;8258;51.020;4.248;2022-07-23T07:40:02;24.40;99.90
16301;DHT22;8258;51.020;4.248;2022-07-23T07:42:29;24.50;99.90
16301;DHT22;8258;51.020;4.248;2022-07-23T07:44:57;24.90;99.90
16301;DHT22;8258;51.020;4.248;2022-07-23T07:47:24;25.30;99.90
16301;DHT22;8258;51.020;4.248;2022-07-23T07:49:51;25.40;99.90
16301;DHT22;8258;51.020;4.248;2022-07-23T07:52:18;25.80;99.90
16301;DHT22;8258;51.020;4.248;2022-07-23T07:54:45;26.40;99.90
16301;DHT22;8258;51.020;4.248;2022-07-23T07:57:13;25.90;99.90
16301;DHT22;8258;51.020;4.248;2022-07-23T07:59:41;25.50;99.90
16301;DHT22;8258;51.020;4.248;2022-07-23T08:02:07;25.70;99.90
16301;DHT22;8258;51.020;4.248;2022-07-23T08:04:34;26.90;99.90
16301;DHT22;8258;51.020;4.248;2022-07-23T08:07:01;26.80;99.90
16301;DHT22;8258;51.020;4.248;2022-07-23T08:09:28;27.10;99.90
16301;DHT22;8258;51.020;4.248;2022-07-23T08:11:55;26.80;99.90
16301;DHT22;8258;51.020;4.248;2022-07-23T08:14:24;26.80;99.90
16301;DHT22;8258;51.020;4.248;2022-07-23T08:16:50;26.70;99.90
16301;DHT22;8258;51.020;4.248;2022-07-23T08:19:18;26.80;99.90
16301;DHT22;8258;51.020;4.248;2022-07-23T08:21:44;26.20;99.90
16301;DHT22;8258;51.020;4.248;2022-07-23T08:24:11;26.10;99.90
16301;DHT22;8258;51.020;4.248;2022-07-23T08:26:38;26.70;99.90
16301;DHT22;8258;51.020;4.248;2022-07-23T08:29:07;27.50;99.90
16301;DHT22;8258;51.020;4.248;2022-07-23T08:31:36;27.70;99.90
16301;DHT22;8258;51.020;4.248;2022-07-23T08:34:05;27.40;99.90
16301;DHT22;8258;51.020;4.248;2022-07-23T08:36:32;27.10;99.90
16301;DHT22;8258;51.020;4.248;2022-07-23T08:38:59;27.70;99.90
16301;DHT22;8258;51.020;4.248;2022-07-23T08:41:28;28.70;99.90
16301;DHT22;8258;51.020;4.248;2022-07-23T08:43:55;29.40;99.70
16301;DHT22;8258;51.020;4.248;2022-07-23T08:46:22;29.20;99.80
16301;DHT22;8258;51.020;4.248;2022-07-23T08:48:52;29.70;96.50
16301;DHT22;8258;51.020;4.248;2022-07-23T08:51:19;30.40;96.40
16301;DHT22;8258;51.020;4.248;2022-07-23T08:53:47;30.90;94.90
16301;DHT22;8258;51.020;4.248;2022-07-23T08:56:14;30.50;93.20
16301;DHT22;8258;51.020;4.248;2022-07-23T08:58:41;30.60;93.10
16301;DHT22;8258;51.020;4.248;2022-07-23T09:01:08;30.20;93.20
16301;DHT22;8258;51.020;4.248;2022-07-23T09:03:36;30.00;92.60
16301;DHT22;8258;51.020;4.248;2022-07-23T09:06:05;29.50;93.20
16301;DHT22;8258;51.020;4.248;2022-07-23T09:08:36;29.80;95.00
16301;DHT22;8258;51.020;4.248;2022-07-23T09:11:05;30.40;93.20
16301;DHT22;8258;51.020;4.248;2022-07-23T09:13:38;29.20;94.70
16301;DHT22;8258;51.020;4.248;2022-07-23T09:16:08;29.70;93.50
16301;DHT22;8258;51.020;4.248;2022-07-23T09:18:47;30.20;92.30
16301;DHT22;8258;51.020;4.248;2022-07-23T09:21:18;31.20;91.10
16301;DHT22;8258;51.020;4.248;2022-07-23T09:23:47;31.10;90.30
16301;DHT22;8258;51.020;4.248;2022-07-23T09:26:33;31.10;89.50
16301;DHT22;8258;51.020;4.248;2022-07-23T09:29:07;30.80;88.00
16301;DHT22;8258;51.020;4.248;2022-07-23T09:31:46;30.90;88.40
16301;DHT22;8258;51.020;4.248;2022-07-23T09:34:15;30.70;86.60
16301;DHT22;8258;51.020;4.248;2022-07-23T09:36:44;30.40;89.10
16301;DHT22;8258;51.020;4.248;2022-07-23T09:39:13;30.80;89.10
16301;DHT22;8258;51.020;4.248;2022-07-23T09:41:43;30.80;86.60
16301;DHT22;8258;51.020;4.248;2022-07-23T09:44:13;31.50;85.70
16301;DHT22;8258;51.020;4.248;2022-07-23T09:46:42;30.40;87.30
16301;DHT22;8258;51.020;4.248;2022-07-23T09:49:17;29.90;89.30
16301;DHT22;8258;51.020;4.248;2022-07-23T09:51:48;31.30;88.00
16301;DHT22;8258;51.020;4.248;2022-07-23T09:54:32;31.30;85.80
16301;DHT22;8258;51.020;4.248;2022-07-23T09:57:03;33.00;85.40
16301;DHT22;8258;51.020;4.248;2022-07-23T09:59:32;33.30;81.10
16301;DHT22;8258;51.020;4.248;2022-07-23T10:02:00;33.20;78.80
16301;DHT22;8258;51.020;4.248;2022-07-23T10:04:28;32.70;79.30
16301;DHT22;8258;51.020;4.248;2022-07-23T10:06:59;32.20;76.70
16301;DHT22;8258;51.020;4.248;2022-07-23T10:09:28;32.00;77.60
16301;DHT22;8258;51.020;4.248;2022-07-23T10:11:57;32.50;77.80
16301;DHT22;8258;51.020;4.248;2022-07-23T10:14:38;33.20;76.30
16301;DHT22;8258;51.020;4.248;2022-07-23T10:17:06;33.70;74.30
16301;DHT22;8258;51.020;4.248;2022-07-23T10:19:34;33.60;72.00
16301;DHT22;8258;51.020;4.248;2022-07-23T10:22:03;32.90;72.00
16301;DHT22;8258;51.020;4.248;2022-07-23T10:24:46;33.30;71.90
16301;DHT22;8258;51.020;4.248;2022-07-23T10:27:48;33.80;70.30
16301;DHT22;8258;51.020;4.248;2022-07-23T10:30:22;33.90;68.00
16301;DHT22;8258;51.020;4.248;2022-07-23T10:33:00;33.30;70.40
16301;DHT22;8258;51.020;4.248;2022-07-23T10:35:34;32.70;72.90
16301;DHT22;8258;51.020;4.248;2022-07-23T10:38:11;32.70;70.10
16301;DHT22;8258;51.020;4.248;2022-07-23T10:40:53;32.20;72.30
16301;DHT22;8258;51.020;4.248;2022-07-23T10:43:20;31.50;74.00
16301;DHT22;8258;51.020;4.248;2022-07-23T10:45:47;31.50;74.10
16301;DHT22;8258;51.020;4.248;2022-07-23T10:48:15;31.50;75.70
16301;DHT22;8258;51.020;4.248;2022-07-23T10:50:44;32.70;70.40
16301;DHT22;8258;51.020;4.248;2022-07-23T10:53:53;33.10;67.60
16301;DHT22;8258;51.020;4.248;2022-07-23T10:59:20;33.20;64.60
16301;DHT22;8258;51.020;4.248;2022-07-23T11:01:47;33.90;62.30
16301;DHT22;8258;51.020;4.248;2022-07-23T11:04:15;33.20;62.70
16301;DHT22;8258;51.020;4.248;2022-07-23T11:07:08;33.20;68.40
16301;DHT22;8258;51.020;4.248;2022-07-23T11:09:41;34.10;68.50
16301;DHT22;8258;51.020;4.248;2022-07-23T11:12:34;34.70;64.10
16301;DHT22;8258;51.020;4.248;2022-07-23T11:15:04;34.60;62.60
16301;DHT22;8258;51.020;4.248;2022-07-23T11:17:33;34.60;59.90
16301;DHT22;8258;51.020;4.248;2022-07-23T11:20:19;33.90;63.20
16301;DHT22;8258;51.020;4.248;2022-07-23T11:22:49;34.10;64.40
16301;DHT22;8258;51.020;4.248;2022-07-23T11:25:32;34.50;62.50
16301;DHT22;8258;51.020;4.248;2022-07-23T11:28:09;35.30;61.80
16301;DHT22;8258;51.020;4.248;2022-07-23T11:30:40;35.60;61.30
16301;DHT22;8258;51.020;4.248;2022-07-23T11:33:20;35.90;60.50
16301;DHT22;8258;51.020;4.248;2022-07-23T11:35:50;35.90;59.30
16301;DHT22;8258;51.020;4.248;2022-07-23T11:38:26;35.80;59.80
16301;DHT22;8258;51.020;4.248;2022-07-23T11:40:55;35.80;59.10
16301;DHT22;8258;51.020;4.248;2022-07-23T11:43:23;35.90;57.70
16301;DHT22;8258;51.020;4.248;2022-07-23T11:45:53;35.90;57.70
16301;DHT22;8258;51.020;4.248;2022-07-23T11:48:22;36.20;57.20
16301;DHT22;8258;51.020;4.248;2022-07-23T11:50:49;35.60;57.20
16301;DHT22;8258;51.020;4.248;2022-07-23T11:53:22;35.60;58.80
16301;DHT22;8258;51.020;4.248;2022-07-23T11:55:49;35.10;58.90
16301;DHT22;8258;51.020;4.248;2022-07-23T11:58:18;35.60;59.20
16301;DHT22;8258;51.020;4.248;2022-07-23T12:00:45;36.40;59.00
16301;DHT22;8258;51.020;4.248;2022-07-23T12:03:12;36.40;57.80
16301;DHT22;8258;51.020;4.248;2022-07-23T12:05:39;36.20;55.70
16301;DHT22;8258;51.020;4.248;2022-07-23T12:08:08;35.80;58.10
16301;DHT22;8258;51.020;4.248;2022-07-23T12:10:37;35.50;57.30
16301;DHT22;8258;51.020;4.248;2022-07-23T12:13:06;36.50;57.30
16301;DHT22;8258;51.020;4.248;2022-07-23T12:15:36;36.10;57.30
16301;DHT22;8258;51.020;4.248;2022-07-23T12:18:06;36.10;58.70
16301;DHT22;8258;51.020;4.248;2022-07-23T12:20:36;36.90;58.20
16301;DHT22;8258;51.020;4.248;2022-07-23T12:23:07;36.60;58.50
16301;DHT22;8258;51.020;4.248;2022-07-23T12:25:36;35.50;58.10
16301;DHT22;8258;51.020;4.248;2022-07-23T12:28:05;36.60;56.70
16301;DHT22;8258;51.020;4.248;2022-07-23T12:30:38;36.30;56.50
16301;DHT22;8258;51.020;4.248;2022-07-23T12:33:07;36.70;56.20
16301;DHT22;8258;51.020;4.248;2022-07-23T12:35:36;36.40;56.40
16301;DHT22;8258;51.020;4.248;2022-07-23T12:38:08;36.90;56.30
16301;DHT22;8258;51.020;4.248;2022-07-23T12:40:37;36.40;56.40
16301;DHT22;8258;51.020;4.248;2022-07-23T12:43:06;36.50;57.00
16301;DHT22;8258;51.020;4.248;2022-07-23T12:45:46;36.80;55.70
16301;DHT22;8258;51.020;4.248;2022-07-23T12:48:22;35.90;57.00
16301;DHT22;8258;51.020;4.248;2022-07-23T12:50:52;35.30;58.60
16301;DHT22;8258;51.020;4.248;2022-07-23T12:53:21;35.80;57.70
16301;DHT22;8258;51.020;4.248;2022-07-23T12:55:50;36.00;56.90
16301;DHT22;8258;51.020;4.248;2022-07-23T12:58:19;36.00;56.80
16301;DHT22;8258;51.020;4.248;2022-07-23T13:01:02;36.80;55.30
16301;DHT22;8258;51.020;4.248;2022-07-23T13:03:36;36.90;55.60
16301;DHT22;8258;51.020;4.248;2022-07-23T13:06:05;36.90;55.30
16301;DHT22;8258;51.020;4.248;2022-07-23T13:08:33;37.60;55.80
16301;DHT22;8258;51.020;4.248;2022-07-23T13:11:02;38.00;54.50
16301;DHT22;8258;51.020;4.248;2022-07-23T13:13:32;38.10;54.20
16301;DHT22;8258;51.020;4.248;2022-07-23T13:16:01;38.40;53.80
16301;DHT22;8258;51.020;4.248;2022-07-23T13:18:29;37.70;53.80
16301;DHT22;8258;51.020;4.248;2022-07-23T13:20:57;35.60;55.70
16301;DHT22;8258;51.020;4.248;2022-07-23T13:23:24;34.80;57.60
16301;DHT22;8258;51.020;4.248;2022-07-23T13:25:51;35.50;57.60
16301;DHT22;8258;51.020;4.248;2022-07-23T13:28:19;35.90;56.60
16301;DHT22;8258;51.020;4.248;2022-07-23T13:30:47;36.50;55.40
16301;DHT22;8258;51.020;4.248;2022-07-23T13:33:17;36.80;55.80
16301;DHT22;8258;51.020;4.248;2022-07-23T13:35:44;37.50;55.80
16301;DHT22;8258;51.020;4.248;2022-07-23T13:38:11;36.80;54.60
16301;DHT22;8258;51.020;4.248;2022-07-23T13:40:40;36.20;55.30
16301;DHT22;8258;51.020;4.248;2022-07-23T13:43:08;35.70;55.10
16301;DHT22;8258;51.020;4.248;2022-07-23T13:45:35;35.30;56.50
16301;DHT22;8258;51.020;4.248;2022-07-23T13:48:04;35.80;58.50
16301;DHT22;8258;51.020;4.248;2022-07-23T13:50:32;36.60;56.40
16301;DHT22;8258;51.020;4.248;2022-07-23T13:53:01;35.80;56.40
16301;DHT22;8258;51.020;4.248;2022-07-23T13:55:29;35.80;58.60
16301;DHT22;8258;51.020;4.248;2022-07-23T13:57:56;36.70;57.00
16301;DHT22;8258;51.020;4.248;2022-07-23T14:00:23;36.40;56.30
16301;DHT22;8258;51.020;4.248;2022-07-23T14:02:50;36.50;57.20
16301;DHT22;8258;51.020;4.248;2022-07-23T14:05:17;37.30;55.60
16301;DHT22;8258;51.020;4.248;2022-07-23T14:07:46;37.40;56.00
16301;DHT22;8258;51.020;4.248;2022-07-23T14:10:15;37.30;55.80
16301;DHT22;8258;51.020;4.248;2022-07-23T14:12:43;37.20;55.30
16301;DHT22;8258;51.020;4.248;2022-07-23T14:15:10;37.50;55.70
16301;DHT22;8258;51.020;4.248;2022-07-23T14:17:38;37.60;55.70
16301;DHT22;8258;51.020;4.248;2022-07-23T14:20:06;37.60;56.10
16301;DHT22;8258;51.020;4.248;2022-07-23T14:22:33;36.60;55.80
16301;DHT22;8258;51.020;4.248;2022-07-23T14:25:02;35.70;56.40
16301;DHT22;8258;51.020;4.248;2022-07-23T14:27:30;34.70;56.80
16301;DHT22;8258;51.020;4.248;2022-07-23T14:29:57;33.70;58.90
16301;DHT22;8258;51.020;4.248;2022-07-23T14:32:24;34.00;60.50
16301;DHT22;8258;51.020;4.248;2022-07-23T14:34:51;33.80;58.90
16301;DHT22;8258;51.020;4.248;2022-07-23T14:37:18;34.00;58.80
16301;DHT22;8258;51.020;4.248;2022-07-23T14:39:46;34.30;59.70
16301;DHT22;8258;51.020;4.248;2022-07-23T14:42:15;34.90;59.40
16301;DHT22;8258;51.020;4.248;2022-07-23T14:44:42;35.50;59.90
16301;DHT22;8258;51.020;4.248;2022-07-23T14:47:08;35.70;57.40
16301;DHT22;8258;51.020;4.248;2022-07-23T14:49:35;35.20;59.00
16301;DHT22;8258;51.020;4.248;2022-07-23T14:52:04;36.00;59.00
16301;DHT22;8258;51.020;4.248;2022-07-23T14:54:31;36.20;58.60
16301;DHT22;8258;51.020;4.248;2022-07-23T14:56:59;36.10;57.60
16301;DHT22;8258;51.020;4.248;2022-07-23T14:59:28;35.80;58.20
16301;DHT22;8258;51.020;4.248;2022-07-23T15:01:55;36.00;59.00
16301;DHT22;8258;51.020;4.248;2022-07-23T15:04:22;36.70;57.30
16301;DHT22;8258;51.020;4.248;2022-07-23T15:06:49;36.90;56.30
16301;DHT22;8258;51.020;4.248;2022-07-23T15:09:16;37.10;56.10
16301;DHT22;8258;51.020;4.248;2022-07-23T15:11:44;36.70;56.30
16301;DHT22;8258;51.020;4.248;2022-07-23T15:14:11;36.80;55.70
16301;DHT22;8258;51.020;4.248;2022-07-23T15:16:39;37.30;56.10
16301;DHT22;8258;51.020;4.248;2022-07-23T15:19:06;37.80;55.20
16301;DHT22;8258;51.020;4.248;2022-07-23T15:21:33;37.20;55.00
16301;DHT22;8258;51.020;4.248;2022-07-23T15:24:00;35.50;56.20
16301;DHT22;8258;51.020;4.248;2022-07-23T15:26:27;33.50;58.80
16301;DHT22;8258;51.020;4.248;2022-07-23T15:28:54;32.90;60.80
16301;DHT22;8258;51.020;4.248;2022-07-23T15:31:22;33.70;60.40
16301;DHT22;8258;51.020;4.248;2022-07-23T15:33:50;34.40;58.90
16301;DHT22;8258;51.020;4.248;2022-07-23T15:36:17;34.70;59.10
16301;DHT22;8258;51.020;4.248;2022-07-23T15:38:44;33.50;60.00
16301;DHT22;8258;51.020;4.248;2022-07-23T15:41:11;33.20;62.80
16301;DHT22;8258;51.020;4.248;2022-07-23T15:43:39;33.70;63.80
16301;DHT22;8258;51.020;4.248;2022-07-23T15:46:06;34.90;60.70
16301;DHT22;8258;51.020;4.248;2022-07-23T15:48:35;35.40;58.60
16301;DHT22;8258;51.020;4.248;2022-07-23T15:51:04;34.60;58.40
16301;DHT22;8258;51.020;4.248;2022-07-23T15:53:32;34.00;60.60
16301;DHT22;8258;51.020;4.248;2022-07-23T15:55:59;33.10;60.70